Ana Sayfa
METAR-TAF:

METAR-TAF

Havaalanları :

Kuveyt, Kuveyt

Enlem: 29-13N, Boylam: 047-59E, yükseklik: 55 m

Güncel hava durumu gözlemi

Rapor saat 08:00 UTC de 56 dakika önce yapıldı.
Rüzgar kuzeybatıdan 8 kt
Sıcaklık 15°C
Nem 51%
Basınç 1021 hPa
Görüş mesafesi 10 km veya daha fazla
1500 m altında bulut yok ve kümülonimbus yok

METAR: OKBK 230800Z 31008KT CAVOK 15/05 Q1021 NOSIG

Saat: 11:56 (08:56 UTC)

Tahmin

Rapor saat 04:45 UTC de 4 saat ve 11 dakika önce yapıldı.
Ayın 23'si saat 06 UTC'den ayın 24'si saat 12 UTC'ye kadar geçerli Tahmin
Rüzgar kuzeybatıdan 8 kt ve 18 kt'a kadar ani rüzgarlar
Görüş mesafesi: 7000 m

TAF: OKBK 230445Z 2306/2412 32008G18KT 7000 NSC

4.000'den fazla havaalanı için hava durumu gözlemleri ve tahminleri (METAR ve TAF raporları).

Kullanılabilir istasyonlar harita üzerinde sarı ve kırmızı noktalarla gösterilir.

İstasyonun adını görmek için fareyi noktanın üzerinde gezdirin.

Sonrasında hava gözlem ve tahminlerini görmek için tıklayın.

Haritayı değiştirmek için: yaklaştırmak için siyah artı işaretli yeşil düğmeye ve uzaklaştırmak için de eksi işaretli düğmeye hızla tıklayın; bitişik haritalar için yeşil okları kullanın.


METAR-TAF: